Time;durP1;ratioP1;P1;durP2;ratioP2;P2;SDS_P1;SDS_P2;PMS_P1;PMS_P2;Temp;Humidity;BMP_temperature;BMP_pressure;BME280_temperature;BME280_humidity;BME280_pressure;Samples;Min_cycle;Max_cycle;Signal;HPM_P1;HPM_P2
2022/04/22 00:02:23;;;;;;;10.30;7.60;;;21.90;53.10;;;;;;5075909;28;20496;-68
2022/04/22 00:04:49;;;;;;;10.23;7.35;;;21.80;53.00;;;;;;5076315;28;20044;-68
2022/04/22 00:07:15;;;;;;;10.88;7.00;;;21.80;53.00;;;;;;5076478;28;20037;-68
2022/04/22 00:09:41;;;;;;;7.97;6.78;;;21.80;53.00;;;;;;5076337;28;20041;-68
2022/04/22 00:12:08;;;;;;;9.48;6.50;;;21.80;52.90;;;;;;5076416;28;20071;-68
2022/04/22 00:14:35;;;;;;;11.15;7.30;;;21.60;52.80;;;;;;5076078;28;20053;-68
2022/04/22 00:17:01;;;;;;;11.80;7.68;;;21.80;52.90;;;;;;5076194;28;20105;-67
2022/04/22 00:19:27;;;;;;;13.15;7.28;;;21.80;52.90;;;;;;5076290;28;20041;-68
2022/04/22 00:21:53;;;;;;;9.73;6.88;;;21.90;53.00;;;;;;5076315;28;20047;-67
2022/04/22 00:24:20;;;;;;;12.57;7.03;;;21.80;52.90;;;;;;5076005;28;20052;-68
2022/04/22 00:26:46;;;;;;;12.93;8.50;;;21.80;52.90;;;;;;5076314;28;20045;-68
2022/04/22 00:29:12;;;;;;;8.75;6.90;;;21.80;52.90;;;;;;5075483;28;20100;-67
2022/04/22 00:31:39;;;;;;;11.35;7.75;;;21.80;52.80;;;;;;5076163;28;20045;-68
2022/04/22 00:34:05;;;;;;;8.05;6.60;;;21.80;52.80;;;;;;5075964;28;20049;-67
2022/04/22 00:36:31;;;;;;;9.43;7.43;;;21.70;52.80;;;;;;5075985;28;20044;-67
2022/04/22 00:38:57;;;;;;;11.57;7.78;;;21.80;52.80;;;;;;5076144;28;20041;-68
2022/04/22 00:41:23;;;;;;;11.90;7.88;;;21.70;52.70;;;;;;5075881;28;20048;-67
2022/04/22 00:43:50;;;;;;;8.27;7.28;;;21.80;52.80;;;;;;5079176;28;20036;-68
2022/04/22 00:46:17;;;;;;;10.95;7.38;;;21.70;52.80;;;;;;5079854;28;20041;-67
2022/04/22 00:48:44;;;;;;;9.50;6.85;;;21.80;52.80;;;;;;5079794;28;20076;-68
2022/04/22 00:51:10;;;;;;;10.02;7.70;;;21.70;52.90;;;;;;5079639;28;20100;-67
2022/04/22 00:53:37;;;;;;;9.00;6.78;;;21.80;52.60;;;;;;5079459;28;20080;-68
2022/04/22 00:56:07;;;;;;;10.68;6.72;;;21.70;52.70;;;;;;5079350;28;20036;-68
2022/04/22 00:58:36;;;;;;;9.75;7.25;;;21.60;52.70;;;;;;5079526;28;20041;-68
2022/04/22 01:01:02;;;;;;;10.80;7.75;;;21.70;52.80;;;;;;5079724;28;20057;-68
2022/04/22 01:03:28;;;;;;;8.90;6.65;;;21.70;52.90;;;;;;5079389;28;20438;-68
2022/04/22 01:09:47;;;;;;;11.32;6.75;;;21.60;52.80;;;;;;5079462;28;20041;-68
2022/04/22 01:11:31;;;;;;;10.18;6.88;;;21.50;52.80;;;;;;5079195;28;20061;-69
2022/04/22 01:13:59;;;;;;;10.88;6.80;;;21.60;52.80;;;;;;5079180;28;20059;-68
2022/04/22 01:16:26;;;;;;;11.77;7.07;;;21.60;52.70;;;;;;5079304;28;20037;-68
2022/04/22 01:18:52;;;;;;;11.95;8.23;;;21.70;52.70;;;;;;5079103;28;20037;-68
2022/04/22 01:21:19;;;;;;;11.40;7.40;;;21.60;52.60;;;;;;5079177;28;20067;-67
2022/04/22 01:23:45;;;;;;;11.27;7.68;;;21.70;52.70;;;;;;5079057;28;20037;-68
2022/04/22 01:26:13;;;;;;;11.70;8.30;;;21.60;52.70;;;;;;5078767;28;20041;-67
2022/04/22 01:28:39;;;;;;;11.23;7.55;;;21.60;52.80;;;;;;5079067;28;20067;-67
2022/04/22 01:31:06;;;;;;;10.98;7.97;;;21.60;52.70;;;;;;5079030;28;20036;-68
2022/04/22 01:33:32;;;;;;;8.85;7.53;;;21.60;52.70;;;;;;5078406;28;20043;-67
2022/04/22 01:35:59;;;;;;;11.07;7.63;;;21.60;52.70;;;;;;5078528;28;20108;-67
2022/04/22 01:38:26;;;;;;;8.98;7.13;;;21.70;52.70;;;;;;5078692;28;20043;-67
2022/04/22 01:40:52;;;;;;;12.70;7.80;;;21.60;52.60;;;;;;5078579;28;20045;-68
2022/04/22 01:43:18;;;;;;;11.95;8.73;;;21.70;52.70;;;;;;5078668;28;20056;-67
2022/04/22 01:45:45;;;;;;;11.82;8.23;;;21.60;52.60;;;;;;5078708;28;20041;-69
2022/04/22 01:48:11;;;;;;;14.32;8.10;;;21.50;52.50;;;;;;5078590;28;20055;-68
2022/04/22 01:50:37;;;;;;;10.85;7.95;;;21.60;52.60;;;;;;5077827;28;20045;-67
2022/04/22 01:53:06;;;;;;;12.40;9.27;;;21.50;52.60;;;;;;5078626;28;20104;-68
2022/04/22 01:55:34;;;;;;;12.32;7.85;;;21.50;52.60;;;;;;5077555;28;20040;-68
2022/04/22 01:58:01;;;;;;;10.57;8.20;;;21.50;52.70;;;;;;5078547;28;20037;-68
2022/04/22 02:00:27;;;;;;;14.80;8.38;;;21.50;52.70;;;;;;5078215;28;20045;-68
2022/04/22 02:02:54;;;;;;;12.68;7.57;;;21.50;52.70;;;;;;5078254;28;20037;-69
2022/04/22 02:05:22;;;;;;;11.38;7.95;;;21.50;52.70;;;;;;5078147;28;20045;-67
2022/04/22 02:07:48;;;;;;;8.82;7.35;;;21.40;52.70;;;;;;5078177;28;20087;-67
2022/04/22 02:10:14;;;;;;;12.82;7.25;;;21.40;52.60;;;;;;5078239;28;20049;-68
2022/04/22 02:12:40;;;;;;;10.80;7.43;;;21.40;52.50;;;;;;5078228;28;20048;-68
2022/04/22 02:15:07;;;;;;;11.05;8.40;;;21.40;52.60;;;;;;5077732;28;20068;-68
2022/04/22 02:17:33;;;;;;;10.20;7.65;;;21.40;52.50;;;;;;5078171;28;20045;-68
2022/04/22 02:19:59;;;;;;;10.55;7.75;;;21.50;52.60;;;;;;5078000;28;20101;-67
2022/04/22 02:22:25;;;;;;;10.57;7.38;;;21.40;52.60;;;;;;5077934;28;20063;-68
2022/04/22 02:24:52;;;;;;;10.88;7.88;;;21.40;52.50;;;;;;5077725;28;20055;-68
2022/04/22 02:30:03;;;;;;;11.93;8.40;;;21.30;52.50;;;;;;5077661;28;20068;-68
2022/04/22 02:32:29;;;;;;;12.07;8.65;;;21.40;52.60;;;;;;5077890;28;20048;-68
2022/04/22 02:34:56;;;;;;;14.95;8.20;;;21.40;52.60;;;;;;5077531;28;20040;-68
2022/04/22 02:37:22;;;;;;;12.65;8.45;;;21.30;52.60;;;;;;5077494;28;20206;-68
2022/04/22 02:39:48;;;;;;;13.80;8.35;;;21.40;52.50;;;;;;5077741;28;20040;-67
2022/04/22 02:45:26;;;;;;;15.32;8.63;;;21.40;52.40;;;;;;5077438;28;20044;-68
2022/04/22 02:47:53;;;;;;;10.98;8.15;;;21.40;52.40;;;;;;5077614;28;20041;-68
2022/04/22 02:50:19;;;;;;;12.20;8.02;;;21.40;52.30;;;;;;5076959;28;20056;-67
2022/04/22 02:52:45;;;;;;;13.20;7.60;;;21.40;52.30;;;;;;5077439;28;20072;-68
2022/04/22 02:55:11;;;;;;;10.65;8.02;;;21.40;52.40;;;;;;5077118;28;20056;-68
2022/04/22 02:57:38;;;;;;;11.38;8.43;;;21.30;52.40;;;;;;5077289;28;20041;-67
2022/04/22 03:00:05;;;;;;;13.73;8.70;;;21.40;52.30;;;;;;5077320;28;20445;-68
2022/04/22 03:02:31;;;;;;;12.40;8.48;;;21.30;52.40;;;;;;5077324;28;20062;-68
2022/04/22 03:04:58;;;;;;;13.00;8.35;;;21.30;52.50;;;;;;5076605;28;20045;-68
2022/04/22 03:07:24;;;;;;;13.80;8.95;;;21.20;52.40;;;;;;5076224;28;20044;-68
2022/04/22 03:09:50;;;;;;;10.15;8.38;;;21.20;52.40;;;;;;5077204;28;20045;-68
2022/04/22 03:12:16;;;;;;;15.32;9.02;;;21.20;52.50;;;;;;5076928;28;20060;-68
2022/04/22 03:14:44;;;;;;;10.35;8.25;;;21.20;52.50;;;;;;5076888;28;20049;-68
2022/04/22 03:17:10;;;;;;;13.45;8.18;;;21.20;52.40;;;;;;5077080;28;20048;-67
2022/04/22 03:19:36;;;;;;;13.43;9.02;;;21.20;52.50;;;;;;5076965;28;20037;-68
2022/04/22 03:22:02;;;;;;;14.75;9.73;;;21.20;52.50;;;;;;5076867;28;20045;-67
2022/04/22 03:24:29;;;;;;;12.43;9.57;;;21.10;52.40;;;;;;5076595;28;20052;-68
2022/04/22 03:26:55;;;;;;;11.73;8.52;;;21.20;52.30;;;;;;5076902;28;20052;-68
2022/04/22 03:29:22;;;;;;;11.45;8.68;;;21.20;52.30;;;;;;5076907;28;20055;-67
2022/04/22 03:31:48;;;;;;;12.15;8.27;;;21.10;52.30;;;;;;5076748;28;20045;-67
2022/04/22 03:34:14;;;;;;;14.50;8.57;;;21.10;52.40;;;;;;5076580;28;20052;-68
2022/04/22 03:36:40;;;;;;;13.95;9.23;;;21.10;52.50;;;;;;5076628;28;20067;-68
2022/04/22 03:39:05;;;;;;;15.55;9.15;;;21.00;52.40;;;;;;5076511;28;20043;-67
2022/04/22 03:41:33;;;;;;;14.15;9.13;;;21.10;52.30;;;;;;5076426;28;20045;-67
2022/04/22 03:43:59;;;;;;;19.80;9.30;;;21.10;52.20;;;;;;5076600;28;20044;-68
2022/04/22 03:46:25;;;;;;;11.50;7.88;;;21.20;52.30;;;;;;5076336;28;20105;-67
2022/04/22 03:48:55;;;;;;;12.32;8.40;;;21.30;52.10;;;;;;5076621;28;20048;-68
2022/04/22 03:51:21;;;;;;;9.43;6.72;;;21.50;51.60;;;;;;5076665;28;20064;-68
2022/04/22 03:53:47;;;;;;;12.07;8.10;;;21.70;51.30;;;;;;5076217;28;20063;-68
2022/04/22 03:58:59;;;;;;;11.82;7.85;;;21.80;50.60;;;;;;5076440;28;20075;-68
2022/04/22 04:01:25;;;;;;;14.70;8.20;;;21.80;50.50;;;;;;5075741;28;20037;-68
2022/04/22 04:03:51;;;;;;;12.05;8.00;;;21.90;50.60;;;;;;5075606;28;20036;-68
2022/04/22 04:06:18;;;;;;;10.88;7.38;;;21.80;50.90;;;;;;5075554;28;20093;-68
2022/04/22 04:15:57;;;;;;;8.95;7.07;;;21.70;51.70;;;;;;5075653;28;20033;-67
2022/04/22 04:16:59;;;;;;;15.88;8.73;;;22.60;54.80;;;;;;5076055;28;20045;-67
2022/04/22 04:24:55;;;;;;;13.95;8.77;;;22.50;47.20;;;;;;5079675;28;20045;-68
2022/04/22 04:27:21;;;;;;;13.57;9.20;;;22.50;47.50;;;;;;5079556;28;20127;-67
2022/04/22 04:29:48;;;;;;;17.45;9.77;;;22.30;47.30;;;;;;5079288;28;20052;-67
2022/04/22 04:32:15;;;;;;;14.82;8.73;;;22.40;47.50;;;;;;5079485;28;20033;-67
2022/04/22 04:34:43;;;;;;;13.55;8.70;;;22.20;48.10;;;;;;5078827;28;20056;-67
2022/04/22 04:37:09;;;;;;;14.20;10.07;;;22.10;48.60;;;;;;5079513;28;20041;-67
2022/04/22 04:39:36;;;;;;;13.85;9.30;;;22.00;49.00;;;;;;5076650;28;20067;-67
2022/04/22 04:42:02;;;;;;;15.35;9.10;;;22.20;49.50;;;;;;5078481;28;20060;-67
2022/04/22 04:44:29;;;;;;;13.88;9.38;;;22.20;49.80;;;;;;5079147;28;20045;-67
2022/04/22 04:46:55;;;;;;;15.75;10.27;;;22.10;50.00;;;;;;5078963;28;20032;-67
2022/04/22 04:49:21;;;;;;;11.48;7.85;;;22.00;50.20;;;;;;5078950;28;20500;-66
2022/04/22 04:51:47;;;;;;;6.97;5.03;;;22.00;47.00;;;;;;5079123;28;20045;-67
2022/04/22 04:54:13;;;;;;;11.85;5.82;;;22.10;44.10;;;;;;5078654;28;20064;-66
2022/04/22 04:56:39;;;;;;;7.63;5.10;;;22.10;42.70;;;;;;5078749;28;20040;-67
2022/04/22 04:59:05;;;;;;;9.40;6.35;;;22.10;42.30;;;;;;5077883;28;20037;-67
2022/04/22 05:01:32;;;;;;;8.73;6.93;;;22.00;41.80;;;;;;5078923;28;20041;-68
2022/04/22 05:03:58;;;;;;;11.88;7.85;;;22.10;42.50;;;;;;5078661;28;20245;-68
2022/04/22 05:06:24;;;;;;;10.75;6.80;;;22.10;45.00;;;;;;5078617;28;20048;-68
2022/04/22 05:08:50;;;;;;;9.52;6.82;;;22.10;44.10;;;;;;5078547;28;20504;-69
2022/04/22 05:11:16;;;;;;;10.27;6.97;;;22.20;42.70;;;;;;5078680;28;20040;-68
2022/04/22 05:13:42;;;;;;;9.73;6.80;;;22.20;43.00;;;;;;5078382;28;20048;-68
2022/04/22 05:16:09;;;;;;;8.40;6.45;;;22.30;42.20;;;;;;5078581;28;20044;-69
2022/04/22 05:18:35;;;;;;;9.95;6.05;;;22.20;41.50;;;;;;5077704;28;20041;-68
2022/04/22 05:21:01;;;;;;;12.48;6.47;;;22.30;42.40;;;;;;5078389;28;20066;-68
2022/04/22 05:23:27;;;;;;;10.63;7.28;;;22.20;41.20;;;;;;5078449;28;20104;-68
2022/04/22 05:25:54;;;;;;;12.75;7.32;;;22.20;42.30;;;;;;5078037;28;20040;-68
2022/04/22 05:28:20;;;;;;;11.95;6.70;;;22.20;43.20;;;;;;5077481;28;20132;-68
2022/04/22 05:33:44;;;;;;;8.98;6.70;;;22.20;41.80;;;;;;5088108;28;20045;-68
2022/04/22 05:36:12;;;;;;;8.75;6.95;;;22.30;42.50;;;;;;5078235;28;20048;-68
2022/04/22 05:38:38;;;;;;;9.52;6.47;;;22.20;42.30;;;;;;5077823;28;20045;-68
2022/04/22 05:41:04;;;;;;;10.88;7.05;;;22.20;41.70;;;;;;5077477;28;20048;-68
2022/04/22 05:43:30;;;;;;;7.93;6.57;;;22.30;41.60;;;;;;5077779;28;20037;-69
2022/04/22 05:45:58;;;;;;;10.70;5.75;;;22.10;40.90;;;;;;5077303;28;20104;-68
2022/04/22 05:48:24;;;;;;;11.18;6.95;;;22.10;40.50;;;;;;5077442;28;20052;-68
2022/04/22 05:50:50;;;;;;;15.10;6.70;;;22.20;40.90;;;;;;5077313;28;20052;-69
2022/04/22 05:53:16;;;;;;;14.80;7.63;;;22.10;40.80;;;;;;5077080;28;20115;-69
2022/04/22 05:55:43;;;;;;;12.77;8.48;;;22.20;40.50;;;;;;5077030;28;20044;-69
2022/04/22 05:58:09;;;;;;;10.00;6.72;;;22.20;40.30;;;;;;5077022;28;20055;-68
2022/04/22 06:00:35;;;;;;;13.98;9.43;;;22.30;40.10;;;;;;5076783;28;20068;-70
2022/04/22 06:03:01;;;;;;;13.73;10.65;;;22.30;53.00;;;;;;5077559;28;20096;-68
2022/04/22 06:05:28;;;;;;;13.85;8.30;;;22.40;55.00;;;;;;5077758;28;20047;-69
2022/04/22 06:10:41;;;;;;;14.25;9.82;;;22.60;52.30;;;;;;5076737;28;20044;-69
2022/04/22 06:13:08;;;;;;;15.75;9.88;;;22.50;50.20;;;;;;5076464;28;20057;-68
2022/04/22 06:15:34;;;;;;;14.20;9.25;;;22.50;51.00;;;;;;5076275;28;20087;-70
2022/04/22 06:18:01;;;;;;;9.43;6.60;;;22.50;52.40;;;;;;5076020;28;20041;-70
2022/04/22 06:20:27;;;;;;;10.50;8.10;;;22.60;52.40;;;;;;5076541;28;20044;-70
2022/04/22 06:22:54;;;;;;;10.75;6.90;;;22.50;49.90;;;;;;5075258;28;20049;-70
2022/04/22 06:25:21;;;;;;;7.47;6.20;;;22.60;51.60;;;;;;5076836;28;20044;-70
2022/04/22 06:27:47;;;;;;;10.52;7.28;;;22.60;49.20;;;;;;5076726;28;20047;-71
2022/04/22 06:30:18;;;;;;;13.80;6.63;;;22.60;47.20;;;;;;5077058;28;20045;-71
2022/04/22 06:32:46;;;;;;;10.95;6.97;;;22.60;45.30;;;;;;5076374;28;20048;-72
2022/04/22 06:35:15;;;;;;;12.57;8.45;;;22.60;45.80;;;;;;5076208;28;20032;-72
2022/04/22 06:37:46;;;;;;;12.45;7.80;;;22.70;46.00;;;;;;5076990;28;20033;-71
2022/04/22 06:45:49;;;;;;;8.52;5.47;;;22.60;48.80;;;;;;5076675;28;20047;-70
2022/04/22 06:48:33;;;;;;;11.85;6.22;;;22.60;46.90;;;;;;5076655;28;20317;-69
2022/04/22 06:51:01;;;;;;;7.60;5.82;;;22.60;43.30;;;;;;5076828;28;20044;-70
2022/04/22 06:53:28;;;;;;;8.35;6.22;;;22.50;42.40;;;;;;5076138;28;20048;-70
2022/04/22 06:55:58;;;;;;;10.55;5.18;;;22.60;42.00;;;;;;5076285;28;20052;-69
2022/04/22 06:58:26;;;;;;;8.63;6.28;;;22.60;42.10;;;;;;5075837;28;20067;-68
2022/04/22 07:00:53;;;;;;;7.20;5.85;;;22.60;43.40;;;;;;5076051;28;20037;-70
2022/04/22 07:03:19;;;;;;;8.10;6.18;;;22.70;44.00;;;;;;5076274;28;20040;-70
2022/04/22 07:05:51;;;;;;;7.53;6.10;;;22.70;44.20;;;;;;5076429;28;20045;-70
2022/04/22 07:08:18;;;;;;;7.88;5.55;;;22.60;44.80;;;;;;5076558;28;20037;-70
2022/04/22 07:10:49;;;;;;;5.78;5.13;;;22.70;44.10;;;;;;5075910;28;20044;-68
2022/04/22 07:13:18;;;;;;;8.13;5.60;;;22.80;43.50;;;;;;5076637;28;20045;-69
2022/04/22 07:15:48;;;;;;;9.45;5.40;;;23.10;42.90;;;;;;5076007;28;20052;-68
2022/04/22 07:18:15;;;;;;;6.25;4.93;;;23.30;42.50;;;;;;5075931;28;20060;-68
2022/04/22 07:20:42;;;;;;;7.50;5.05;;;23.60;41.30;;;;;;5075643;28;20067;-69
2022/04/22 07:23:09;;;;;;;8.25;5.47;;;23.50;43.60;;;;;;5075910;28;20246;-69
2022/04/22 07:25:37;;;;;;;7.57;5.20;;;23.50;44.10;;;;;;5076064;28;20068;-69
2022/04/22 07:28:04;;;;;;;6.95;5.22;;;23.30;44.70;;;;;;5076128;28;20098;-68
2022/04/22 07:30:30;;;;;;;8.18;6.20;;;23.40;45.90;;;;;;5076023;28;20044;-68
2022/04/22 07:32:56;;;;;;;11.85;5.32;;;23.30;45.50;;;;;;5075302;28;20039;-68
2022/04/22 07:35:23;;;;;;;5.80;4.95;;;23.30;46.70;;;;;;5075943;28;20044;-68
2022/04/22 07:37:53;;;;;;;8.52;4.95;;;23.40;46.10;;;;;;5075804;28;20040;-68
2022/04/22 07:40:21;;;;;;;6.47;5.15;;;23.30;46.10;;;;;;5074936;28;20048;-69
2022/04/22 07:48:21;;;;;;;7.97;5.50;;;23.40;45.50;;;;;;5075025;28;20057;-69
2022/04/22 07:50:48;;;;;;;7.65;5.78;;;23.30;45.90;;;;;;5075880;28;20049;-69
2022/04/22 07:53:18;;;;;;;13.50;6.38;;;23.40;46.30;;;;;;5075416;28;20040;-68
2022/04/22 07:55:46;;;;;;;7.03;5.78;;;23.40;47.00;;;;;;5075430;28;20041;-68
2022/04/22 07:58:15;;;;;;;9.05;6.68;;;23.40;46.20;;;;;;5075683;28;20055;-68
2022/04/22 08:00:43;;;;;;;8.80;6.43;;;23.50;44.40;;;;;;5075709;28;20043;-68
2022/04/22 08:03:09;;;;;;;8.15;6.38;;;23.50;43.60;;;;;;5075870;28;20033;-69
2022/04/22 08:05:39;;;;;;;7.00;6.15;;;23.50;46.30;;;;;;5075773;28;20141;-71
2022/04/22 08:08:06;;;;;;;10.82;6.43;;;23.50;47.00;;;;;;5075905;28;20076;-70
2022/04/22 08:10:33;;;;;;;11.75;5.93;;;23.50;46.40;;;;;;5075970;28;20045;-71
2022/04/22 08:13:00;;;;;;;8.43;6.40;;;23.60;47.10;;;;;;5075173;28;20086;-69
2022/04/22 08:15:26;;;;;;;10.48;6.78;;;23.50;47.20;;;;;;5075429;28;20044;-70
2022/04/22 08:17:53;;;;;;;6.97;5.47;;;23.60;46.50;;;;;;5075188;28;20060;-68
2022/04/22 08:20:19;;;;;;;14.60;4.85;;;23.60;47.70;;;;;;5075516;28;20044;-68
2022/04/22 08:22:45;;;;;;;13.25;6.68;;;23.70;46.90;;;;;;5075758;28;20068;-69
2022/04/22 08:25:12;;;;;;;8.73;6.22;;;23.70;46.10;;;;;;5075610;28;20060;-69
2022/04/22 08:27:45;;;;;;;12.00;6.78;;;23.80;42.70;;;;;;5075361;28;20049;-69
2022/04/22 08:30:12;;;;;;;9.80;6.40;;;23.80;45.00;;;;;;5075510;28;20045;-68
2022/04/22 08:32:38;;;;;;;7.55;5.13;;;23.80;44.80;;;;;;5075001;28;20100;-68
2022/04/22 08:35:05;;;;;;;11.68;6.32;;;23.80;42.40;;;;;;5075235;28;20041;-68
2022/04/22 08:37:31;;;;;;;9.50;5.20;;;23.90;44.10;;;;;;5075471;28;20066;-68
2022/04/22 08:39:57;;;;;;;7.20;4.45;;;23.80;45.70;;;;;;5075592;28;20045;-68
2022/04/22 08:42:24;;;;;;;8.27;5.32;;;23.80;47.70;;;;;;5075298;28;20056;-70
2022/04/22 08:44:52;;;;;;;9.05;5.88;;;23.90;47.90;;;;;;5074815;28;20183;-69
2022/04/22 08:50:16;;;;;;;7.47;4.63;;;23.90;48.70;;;;;;5075441;28;20067;-69
2022/04/22 08:52:49;;;;;;;6.18;4.35;;;23.90;48.30;;;;;;5075342;28;20055;-69
2022/04/22 08:55:17;;;;;;;31.65;11.82;;;23.90;51.60;;;;;;5075164;28;20041;-70
2022/04/22 08:57:43;;;;;;;29.38;13.68;;;24.20;46.50;;;;;;5074182;28;20041;-70
2022/04/22 09:00:10;;;;;;;51.40;19.35;;;24.50;43.90;;;;;;5075342;28;20037;-70
2022/04/22 09:02:37;;;;;;;24.00;10.45;;;24.60;40.50;;;;;;5075044;28;20072;-70
2022/04/22 09:05:05;;;;;;;24.27;10.43;;;24.50;40.80;;;;;;5077147;28;20052;-70
2022/04/22 09:07:32;;;;;;;14.90;7.57;;;24.60;39.70;;;;;;5078641;28;20112;-70
2022/04/22 09:09:58;;;;;;;19.48;6.60;;;24.50;42.10;;;;;;5078512;28;20045;-70
2022/04/22 09:12:26;;;;;;;17.33;6.50;;;24.60;41.80;;;;;;5078109;28;20048;-69
2022/04/22 09:14:56;;;;;;;9.85;5.93;;;24.60;42.10;;;;;;5078209;28;20045;-70
2022/04/22 09:17:25;;;;;;;8.18;5.55;;;24.50;43.10;;;;;;5078225;28;20041;-72
2022/04/22 09:19:53;;;;;;;6.40;4.85;;;24.60;38.60;;;;;;5077635;28;20048;-71
2022/04/22 09:22:27;;;;;;;6.07;5.38;;;24.80;44.90;;;;;;5077822;28;20086;-70
2022/04/22 09:24:58;;;;;;;7.88;5.03;;;24.70;45.00;;;;;;5078592;28;20064;-71
2022/04/22 09:27:37;;;;;;;10.23;5.60;;;24.60;45.10;;;;;;5076089;28;20075;-69
2022/04/22 09:30:09;;;;;;;5.93;4.95;;;24.60;47.40;;;;;;5078389;28;20060;-71
2022/04/22 09:32:39;;;;;;;5.78;4.30;;;24.80;41.80;;;;;;5088141;28;20041;-71
2022/04/22 09:35:10;;;;;;;25.33;16.88;;;24.70;40.90;;;;;;5078228;28;20052;-70
2022/04/22 09:43:25;;;;;;;9.27;5.07;;;25.20;44.70;;;;;;5078221;28;20089;-70
2022/04/22 09:45:53;;;;;;;8.20;4.65;;;25.40;38.50;;;;;;5078068;28;20045;-71
2022/04/22 09:48:20;;;;;;;7.63;4.40;;;25.20;36.00;;;;;;5077296;28;20037;-71
2022/04/22 09:50:52;;;;;;;6.28;4.70;;;25.20;34.30;;;;;;5077975;28;20044;-69
2022/04/22 09:53:38;;;;;;;8.93;4.70;;;25.00;36.60;;;;;;5080141;28;20051;-70
2022/04/22 09:56:08;;;;;;;7.72;4.32;;;25.20;35.90;;;;;;5085066;28;20112;-70
2022/04/22 09:58:35;;;;;;;8.40;4.05;;;25.20;35.90;;;;;;5077766;28;20135;-70
2022/04/22 10:01:04;;;;;;;13.20;4.53;;;25.20;37.10;;;;;;5057879;28;20069;-69
2022/04/22 10:03:33;;;;;;;6.55;4.10;;;25.10;40.10;;;;;;5057835;28;20097;-70
2022/04/22 10:06:01;;;;;;;5.47;4.57;;;25.10;42.20;;;;;;5057557;28;20065;-71
2022/04/22 10:08:31;;;;;;;7.95;4.97;;;25.20;38.20;;;;;;5057770;28;20101;-70
2022/04/22 10:10:59;;;;;;;4.80;4.18;;;25.20;50.00;;;;;;5059422;28;20037;-69
2022/04/22 10:13:34;;;;;;;6.63;4.10;;;25.20;47.50;;;;;;5080332;28;20045;-70
2022/04/22 10:16:02;;;;;;;9.63;4.00;;;25.00;46.60;;;;;;5097051;28;20044;-70
2022/04/22 10:18:30;;;;;;;6.70;4.40;;;25.00;46.10;;;;;;5097208;28;20070;-69
2022/04/22 10:20:58;;;;;;;7.35;4.18;;;25.10;46.30;;;;;;5077361;28;20059;-68
2022/04/22 10:23:24;;;;;;;7.03;4.63;;;25.10;46.10;;;;;;5077423;28;20545;-69
2022/04/22 10:25:51;;;;;;;7.13;4.38;;;25.10;46.80;;;;;;5077178;28;20049;-71
2022/04/22 10:28:19;;;;;;;8.82;4.10;;;25.00;46.70;;;;;;5076533;28;20045;-70
2022/04/22 10:30:47;;;;;;;7.03;4.30;;;25.00;46.80;;;;;;5076381;28;20051;-70
2022/04/22 10:33:13;;;;;;;7.53;3.60;;;25.00;46.70;;;;;;5082673;28;20040;-69
2022/04/22 10:35:42;;;;;;;6.00;4.57;;;25.00;47.30;;;;;;5089284;28;20070;-70
2022/04/22 10:38:27;;;;;;;13.40;5.47;;;24.90;47.70;;;;;;5096375;28;20048;-70
2022/04/22 10:40:53;;;;;;;9.02;4.50;;;24.90;35.20;;;;;;5092541;28;20056;-71
2022/04/22 10:43:21;;;;;;;5.05;4.25;;;24.80;45.30;;;;;;5077135;28;20037;-70
2022/04/22 10:48:32;;;;;;;7.55;4.63;;;24.70;48.10;;;;;;5056423;28;20055;-70
2022/04/22 10:51:00;;;;;;;5.90;4.03;;;24.80;47.80;;;;;;5058300;28;20098;-70
2022/04/22 10:53:34;;;;;;;7.63;4.38;;;24.70;47.40;;;;;;5096654;28;20041;-70
2022/04/22 10:56:30;;;;;;;10.18;4.47;;;24.70;47.60;;;;;;5088856;28;20096;-70
2022/04/22 10:59:15;;;;;;;4.95;4.13;;;24.70;48.70;;;;;;5076360;28;20044;-69
2022/04/22 11:01:45;;;;;;;5.22;4.03;;;24.60;48.70;;;;;;5076669;28;20063;-70
2022/04/22 11:04:29;;;;;;;5.95;4.20;;;24.70;49.00;;;;;;5076435;28;20041;-70
2022/04/22 11:06:56;;;;;;;5.18;3.92;;;24.60;49.10;;;;;;5075993;28;20045;-70
2022/04/22 11:09:29;;;;;;;7.47;4.40;;;24.70;49.20;;;;;;5064255;28;20520;-70
2022/04/22 11:11:57;;;;;;;5.97;4.20;;;24.60;49.20;;;;;;5055995;28;20045;-70
2022/04/22 11:14:28;;;;;;;5.15;3.92;;;24.60;49.20;;;;;;5060515;28;20041;-70
2022/04/22 11:16:55;;;;;;;7.30;4.38;;;24.70;49.30;;;;;;5077776;28;20041;-71
2022/04/22 11:19:22;;;;;;;5.53;4.93;;;24.60;48.00;;;;;;5076249;28;20041;-70
2022/04/22 11:21:53;;;;;;;7.32;4.47;;;24.60;44.20;;;;;;5081152;28;20036;-71
2022/04/22 11:24:27;;;;;;;6.88;4.60;;;24.50;49.00;;;;;;5080612;28;20044;-70
2022/04/22 11:27:06;;;;;;;6.20;4.85;;;24.40;47.90;;;;;;5085556;28;20055;-71
2022/04/22 11:29:33;;;;;;;7.55;4.78;;;24.30;47.60;;;;;;5091326;28;20075;-71
2022/04/22 11:32:17;;;;;;;6.00;4.25;;;24.40;49.50;;;;;;5075935;28;20063;-72
2022/04/22 11:35:18;;;;;;;6.90;4.95;;;24.30;48.80;;;;;;5075827;28;20056;-71
2022/04/22 11:37:44;;;;;;;8.40;5.07;;;24.40;50.70;;;;;;5082317;28;20040;-71
2022/04/22 11:40:18;;;;;;;8.45;5.15;;;24.30;47.00;;;;;;5095688;28;20067;-71
2022/04/22 11:42:45;;;;;;;6.60;4.82;;;24.30;45.00;;;;;;5088234;28;20049;-71
2022/04/22 11:45:14;;;;;;;6.10;4.47;;;24.30;51.10;;;;;;5075536;28;20045;-71
2022/04/22 11:47:41;;;;;;;8.30;4.80;;;24.30;49.70;;;;;;5075897;28;20100;-71
2022/04/22 11:50:08;;;;;;;7.82;4.47;;;24.20;51.60;;;;;;5075351;28;20037;-71
2022/04/22 11:52:35;;;;;;;6.78;4.72;;;24.30;51.50;;;;;;5094830;28;20052;-70
2022/04/22 11:55:06;;;;;;;6.43;4.50;;;24.30;51.70;;;;;;5095720;28;20370;-71
2022/04/22 11:57:34;;;;;;;5.27;4.17;;;24.30;51.90;;;;;;5086120;28;20036;-72
2022/04/22 12:05:36;;;;;;;9.02;5.07;;;24.40;55.50;;;;;;5075482;28;20044;-71
2022/04/22 12:08:07;;;;;;;9.07;5.25;;;24.50;56.10;;;;;;5075767;28;20059;-71
2022/04/22 12:10:34;;;;;;;6.18;3.97;;;24.30;56.20;;;;;;5075767;28;20068;-71
2022/04/22 12:13:01;;;;;;;11.48;5.65;;;24.50;55.30;;;;;;5075496;28;20635;-71
2022/04/22 12:15:29;;;;;;;6.68;4.20;;;24.40;51.70;;;;;;5075018;28;20715;-71
2022/04/22 12:17:56;;;;;;;4.80;4.25;;;24.30;52.80;;;;;;5074511;28;20105;-71
2022/04/22 12:20:25;;;;;;;7.28;3.47;;;24.40;51.60;;;;;;5075459;28;20556;-71
2022/04/22 12:22:53;;;;;;;6.90;4.30;;;24.40;49.80;;;;;;5076264;28;20041;-71
2022/04/22 12:25:21;;;;;;;5.05;3.47;;;24.30;47.30;;;;;;5075437;28;20075;-71
2022/04/22 12:28:13;;;;;;;5.78;3.80;;;24.20;52.60;;;;;;5074303;28;20029;-70
2022/04/22 12:30:42;;;;;;;5.88;4.05;;;24.30;47.40;;;;;;5075272;28;20048;-72
2022/04/22 12:33:25;;;;;;;7.80;4.78;;;24.50;47.30;;;;;;5075317;28;20132;-72
2022/04/22 12:36:07;;;;;;;5.40;3.83;;;24.40;50.60;;;;;;5075361;28;20048;-71
2022/04/22 12:38:36;;;;;;;9.83;5.77;;;24.40;50.60;;;;;;5076496;28;20073;-71
2022/04/22 12:41:02;;;;;;;8.63;5.50;;;24.40;51.10;;;;;;5078900;28;20048;-71
2022/04/22 12:43:32;;;;;;;12.05;5.65;;;24.30;49.40;;;;;;5079003;28;20127;-72
2022/04/22 12:52:30;;;;;;;7.45;4.80;;;24.40;49.70;;;;;;5041259;28;20691;-71
2022/04/22 12:55:08;;;;;;;8.50;3.95;;;24.60;46.10;;;;;;5078737;28;20068;-70
2022/04/22 12:57:36;;;;;;;6.03;4.90;;;24.40;51.80;;;;;;5078831;28;20064;-71
2022/04/22 13:00:14;;;;;;;6.63;4.38;;;24.40;51.20;;;;;;5078598;28;20071;-72
2022/04/22 13:02:40;;;;;;;10.75;4.35;;;24.50;51.10;;;;;;5078625;28;20033;-72
2022/04/22 13:05:19;;;;;;;5.55;4.35;;;24.60;51.70;;;;;;5078960;28;20041;-73
2022/04/22 13:07:47;;;;;;;7.25;4.57;;;24.50;52.60;;;;;;5078503;28;20045;-70
2022/04/22 13:10:15;;;;;;;5.90;4.72;;;24.60;53.10;;;;;;5078678;28;20137;-72
2022/04/22 13:12:44;;;;;;;6.35;4.22;;;24.50;52.40;;;;;;5078098;28;20033;-72
2022/04/22 13:15:19;;;;;;;7.55;5.10;;;24.30;52.50;;;;;;5077599;28;20192;-71
2022/04/22 13:17:49;;;;;;;7.05;5.30;;;24.50;52.30;;;;;;5078453;28;20058;-72
2022/04/22 13:20:18;;;;;;;6.70;4.40;;;24.50;51.50;;;;;;5078519;28;20080;-71
2022/04/22 13:22:45;;;;;;;8.40;5.30;;;24.50;46.50;;;;;;5077988;28;20045;-71
2022/04/22 13:25:12;;;;;;;8.07;4.85;;;24.30;39.90;;;;;;5078413;28;20078;-70
2022/04/22 13:27:42;;;;;;;6.53;3.20;;;24.30;46.40;;;;;;5077580;28;20036;-70
2022/04/22 13:30:12;;;;;;;8.30;4.45;;;24.30;51.70;;;;;;5078124;28;20041;-74
2022/04/22 13:32:38;;;;;;;5.20;3.33;;;24.30;45.20;;;;;;5077984;28;20134;-72
2022/04/22 13:35:06;;;;;;;5.85;4.50;;;24.30;48.60;;;;;;5078078;28;20143;-71
2022/04/22 13:37:33;;;;;;;6.50;4.80;;;24.40;50.20;;;;;;5078142;28;20060;-72
2022/04/22 13:39:59;;;;;;;6.43;4.13;;;24.30;44.40;;;;;;5078065;28;20045;-74
2022/04/22 13:42:25;;;;;;;9.48;3.92;;;24.30;47.70;;;;;;5077815;28;20053;-72
2022/04/22 13:53:06;;;;;;;4.50;4.10;;;24.50;46.10;;;;;;5077745;28;20112;-73
2022/04/22 13:55:36;;;;;;;5.60;3.35;;;24.40;54.40;;;;;;5077716;28;20045;-72
2022/04/22 13:58:02;;;;;;;0.57;0.57;;;24.40;56.40;;;;;;5075682;28;20044;-71